Time;durP1;ratioP1;P1;durP2;ratioP2;P2;SDS_P1;SDS_P2;PMS_P1;PMS_P2;Temp;Humidity;BMP_temperature;BMP_pressure;BME280_temperature;BME280_humidity;BME280_pressure;Samples;Min_cycle;Max_cycle;Signal;HPM_P1;HPM_P2
2022/06/13 00:00:26;;;;;;;;;;;;;;;;;;5118032;28;19972;-72
2022/06/13 00:02:52;;;;;;;;;;;;;;;;;;5118212;28;19947;-72
2022/06/13 00:05:18;;;;;;;;;;;;;;;;;;5118200;28;20418;-72
2022/06/13 00:07:44;;;;;;;;;;;;;;;;;;5118167;28;19958;-72
2022/06/13 00:10:11;;;;;;;;;;;;;;;;;;5117822;28;19912;-73
2022/06/13 00:12:37;;;;;;;;;;;;;;;;;;5117730;28;19908;-73
2022/06/13 00:15:03;;;;;;;;;;;;;;;;;;5117685;28;20037;-72
2022/06/13 00:17:29;;;;;;;;;;;;;;;;;;5117612;28;19931;-73
2022/06/13 00:19:55;;;;;;;;;;;;;;;;;;5099303;28;19912;-72
2022/06/13 00:22:21;;;;;;;;;;;;;;;;;;5117766;28;19912;-72
2022/06/13 00:24:47;;;;;;;;;;;;;;;;;;5099156;28;19930;-72
2022/06/13 00:27:13;;;;;;;;;;;;;;;;;;5117269;28;19920;-73
2022/06/13 00:29:38;;;;;;;;;;;;;;;;;;5099101;28;19908;-73
2022/06/13 00:32:04;;;;;;;;;;;;;;;;;;5117904;28;19963;-72
2022/06/13 00:34:30;;;;;;;;;;;;;;;;;;5117638;28;19908;-72
2022/06/13 00:36:56;;;;;;;;;;;;;;;;;;5117280;28;20424;-73
2022/06/13 00:39:22;;;;;;;;;;;;;;;;;;5117211;28;19908;-72
2022/06/13 00:41:48;;;;;;;;;;;;;;;;;;5117701;28;20255;-73
2022/06/13 00:44:15;;;;;;;;;;;;;;;;;;5117415;28;19915;-73
2022/06/13 00:46:41;;;;;;;;;;;;;;;;;;5098596;28;20040;-73
2022/06/13 00:49:06;;;;;;;;;;;;;;;;;;5116398;28;19941;-72
2022/06/13 00:51:32;;;;;;;;;;;;;;;;;;5116964;28;19907;-73
2022/06/13 00:53:58;;;;;;;;;;;;;;;;;;5116968;28;19923;-72
2022/06/13 00:56:24;;;;;;;;;;;;;;;;;;5117230;28;19908;-72
2022/06/13 00:58:50;;;;;;;;;;;;;;;;;;5117157;28;19957;-72
2022/06/13 01:01:17;;;;;;;;;;;;;;;;;;5117337;28;19912;-72
2022/06/13 01:03:43;;;;;;;;;;;;;;;;;;5116791;28;19990;-73
2022/06/13 01:06:09;;;;;;;;;;;;;;;;;;5099143;28;19908;-72
2022/06/13 01:08:35;;;;;;;;;;;;;;;;;;5116681;28;19911;-73
2022/06/13 01:11:16;;;;;;;;;;;;;;;;;;5116939;28;19915;-72
2022/06/13 01:13:42;;;;;;;;;;;;;;;;;;5098315;28;19908;-73
2022/06/13 01:16:08;;;;;;;;;;;;;;;;;;5116508;28;19914;-72
2022/06/13 01:18:33;;;;;;;;;;;;;;;;;;5116758;28;19912;-72
2022/06/13 01:20:59;;;;;;;;;;;;;;;;;;5116336;28;20272;-72
2022/06/13 01:23:25;;;;;;;;;;;;;;;;;;5116397;28;19926;-72
2022/06/13 01:25:51;;;;;;;;;;;;;;;;;;5116129;28;19942;-72
2022/06/13 01:28:17;;;;;;;;;;;;;;;;;;5116922;28;19908;-72
2022/06/13 01:30:43;;;;;;;;;;;;;;;;;;5097983;28;19999;-72
2022/06/13 01:33:09;;;;;;;;;;;;;;;;;;5116205;28;20367;-73
2022/06/13 01:35:35;;;;;;;;;;;;;;;;;;5116154;28;19911;-72
2022/06/13 01:38:00;;;;;;;;;;;;;;;;;;5116625;28;19934;-73
2022/06/13 01:40:27;;;;;;;;;;;;;;;;;;5116052;28;19908;-72
2022/06/13 01:42:53;;;;;;;;;;;;;;;;;;5116224;28;20373;-72
2022/06/13 01:45:19;;;;;;;;;;;;;;;;;;5115963;28;19907;-71
2022/06/13 01:47:45;;;;;;;;;;;;;;;;;;5115895;28;19919;-72
2022/06/13 01:50:11;;;;;;;;;;;;;;;;;;5116472;28;20108;-73
2022/06/13 01:52:37;;;;;;;;;;;;;;;;;;5116111;28;19908;-72
2022/06/13 01:55:02;;;;;;;;;;;;;;;;;;5097502;28;19947;-73
2022/06/13 01:57:28;;;;;;;;;;;;;;;;;;5116262;28;19924;-72
2022/06/13 01:59:54;;;;;;;;;;;;;;;;;;5097373;28;19908;-74
2022/06/13 02:02:20;;;;;;;;;;;;;;;;;;5115571;28;20360;-73
2022/06/13 02:04:47;;;;;;;;;;;;;;;;;;5115588;28;19953;-73
2022/06/13 02:07:13;;;;;;;;;;;;;;;;;;5097044;28;19908;-72
2022/06/13 02:09:39;;;;;;;;;;;;;;;;;;5115449;28;19915;-73
2022/06/13 02:12:05;;;;;;;;;;;;;;;;;;5115458;28;19912;-73
2022/06/13 02:14:31;;;;;;;;;;;;;;;;;;5097071;28;19908;-72
2022/06/13 02:16:57;;;;;;;;;;;;;;;;;;5115272;28;19947;-72
2022/06/13 02:19:23;;;;;;;;;;;;;;;;;;5115833;28;20318;-72
2022/06/13 02:21:49;;;;;;;;;;;;;;;;;;5115437;28;19911;-72
2022/06/13 02:24:15;;;;;;;;;;;;;;;;;;5115207;28;19937;-73
2022/06/13 02:26:41;;;;;;;;;;;;;;;;;;5114993;28;19920;-72
2022/06/13 02:29:07;;;;;;;;;;;;;;;;;;5115661;28;20291;-72
2022/06/13 02:31:33;;;;;;;;;;;;;;;;;;5115101;28;19908;-71
2022/06/13 02:33:59;;;;;;;;;;;;;;;;;;5115253;28;19907;-74
2022/06/13 02:36:25;;;;;;;;;;;;;;;;;;5115017;28;19912;-72
2022/06/13 02:38:51;;;;;;;;;;;;;;;;;;5115507;28;20463;-72
2022/06/13 02:41:17;;;;;;;;;;;;;;;;;;5115097;28;19919;-73
2022/06/13 02:43:43;;;;;;;;;;;;;;;;;;5115101;28;20409;-72
2022/06/13 02:46:09;;;;;;;;;;;;;;;;;;5114858;28;19915;-73
2022/06/13 02:48:35;;;;;;;;;;;;;;;;;;5096447;28;19912;-72
2022/06/13 02:51:01;;;;;;;;;;;;;;;;;;5114729;28;19908;-72
2022/06/13 02:53:27;;;;;;;;;;;;;;;;;;5114951;28;19954;-73
2022/06/13 02:55:53;;;;;;;;;;;;;;;;;;5114570;28;19990;-73
2022/06/13 02:58:19;;;;;;;;;;;;;;;;;;5114857;28;19914;-72
2022/06/13 03:00:45;;;;;;;;;;;;;;;;;;5114555;28;20384;-72
2022/06/13 03:03:10;;;;;;;;;;;;;;;;;;5114418;28;19912;-73
2022/06/13 03:05:37;;;;;;;;;;;;;;;;;;5114735;28;20318;-73
2022/06/13 03:08:03;;;;;;;;;;;;;;;;;;5096157;28;19943;-73
2022/06/13 03:10:29;;;;;;;;;;;;;;;;;;5114200;28;19908;-73
2022/06/13 03:12:55;;;;;;;;;;;;;;;;;;5114382;28;19915;-72
2022/06/13 03:15:21;;;;;;;;;;;;;;;;;;5114619;28;20435;-72
2022/06/13 03:17:47;;;;;;;;;;;;;;;;;;5114244;28;19908;-72
2022/06/13 03:20:13;;;;;;;;;;;;;;;;;;5114313;28;20320;-72
2022/06/13 03:22:38;;;;;;;;;;;;;;;;;;5114158;28;19918;-72
2022/06/13 03:25:05;;;;;;;;;;;;;;;;;;5114456;28;19912;-72
2022/06/13 03:27:31;;;;;;;;;;;;;;;;;;5113796;28;19920;-72
2022/06/13 03:29:57;;;;;;;;;;;;;;;;;;5114131;28;19935;-72
2022/06/13 03:32:23;;;;;;;;;;;;;;;;;;5114127;28;19908;-72
2022/06/13 03:34:50;;;;;;;;;;;;;;;;;;5114398;28;19908;-73
2022/06/13 03:37:16;;;;;;;;;;;;;;;;;;5114172;28;19914;-72
2022/06/13 03:39:42;;;;;;;;;;;;;;;;;;5114081;28;19911;-72
2022/06/13 03:42:08;;;;;;;;;;;;;;;;;;5114262;28;19919;-72
2022/06/13 03:44:34;;;;;;;;;;;;;;;;;;5114028;28;20318;-72
2022/06/13 03:47:00;;;;;;;;;;;;;;;;;;5114311;28;19947;-72
2022/06/13 03:49:26;;;;;;;;;;;;;;;;;;5113967;28;19912;-72
2022/06/13 03:51:51;;;;;;;;;;;;;;;;;;5095717;28;20354;-72
2022/06/13 03:54:17;;;;;;;;;;;;;;;;;;5113988;28;19947;-72
2022/06/13 03:56:43;;;;;;;;;;;;;;;;;;5095687;28;19915;-72
2022/06/13 03:59:09;;;;;;;;;;;;;;;;;;5113899;28;19948;-72
2022/06/13 04:01:35;;;;;;;;;;;;;;;;;;5114350;28;19922;-73
2022/06/13 04:04:01;;;;;;;;;;;;;;;;;;5113893;28;19957;-72
2022/06/13 04:06:27;;;;;;;;;;;;;;;;;;5095555;28;19953;-73
2022/06/13 04:08:53;;;;;;;;;;;;;;;;;;5113828;28;20432;-72
2022/06/13 04:11:19;;;;;;;;;;;;;;;;;;5114333;28;20302;-72
2022/06/13 04:13:45;;;;;;;;;;;;;;;;;;5113759;28;19977;-72
2022/06/13 04:16:11;;;;;;;;;;;;;;;;;;5113930;28;19908;-72
2022/06/13 04:18:36;;;;;;;;;;;;;;;;;;5113738;28;20372;-72
2022/06/13 04:21:03;;;;;;;;;;;;;;;;;;5113603;28;19921;-72
2022/06/13 04:23:29;;;;;;;;;;;;;;;;;;5096659;28;19907;-72
2022/06/13 04:25:55;;;;;;;;;;;;;;;;;;5117521;28;19919;-73
2022/06/13 04:28:21;;;;;;;;;;;;;;;;;;5117785;28;19912;-72
2022/06/13 04:30:47;;;;;;;;;;;;;;;;;;5117435;28;19907;-73
2022/06/13 04:33:13;;;;;;;;;;;;;;;;;;5117369;28;20447;-73
2022/06/13 04:35:39;;;;;;;;;;;;;;;;;;5117373;28;19957;-73
2022/06/13 04:38:05;;;;;;;;;;;;;;;;;;5099002;28;20284;-72
2022/06/13 04:40:30;;;;;;;;;;;;;;;;;;5117813;28;19908;-72
2022/06/13 04:42:56;;;;;;;;;;;;;;;;;;5098876;28;19918;-73
2022/06/13 04:45:22;;;;;;;;;;;;;;;;;;5117706;28;19961;-72
2022/06/13 04:47:48;;;;;;;;;;;;;;;;;;5117416;28;19943;-73
2022/06/13 04:50:15;;;;;;;;;;;;;;;;;;5117066;28;20386;-72
2022/06/13 04:52:41;;;;;;;;;;;;;;;;;;5117027;28;19908;-72
2022/06/13 04:55:06;;;;;;;;;;;;;;;;;;5116996;28;19914;-73
2022/06/13 04:57:32;;;;;;;;;;;;;;;;;;5117508;28;20361;-72
2022/06/13 04:59:58;;;;;;;;;;;;;;;;;;5116850;28;19930;-72
2022/06/13 05:02:24;;;;;;;;;;;;;;;;;;5116698;28;19912;-73
2022/06/13 05:04:50;;;;;;;;;;;;;;;;;;5117068;28;20003;-72
2022/06/13 05:07:16;;;;;;;;;;;;;;;;;;5116722;28;19915;-73
2022/06/13 05:09:42;;;;;;;;;;;;;;;;;;5116733;28;19908;-72
2022/06/13 05:12:08;;;;;;;;;;;;;;;;;;5116932;28;19914;-72
2022/06/13 05:14:34;;;;;;;;;;;;;;;;;;5116577;28;19908;-72
2022/06/13 05:17:00;;;;;;;;;;;;;;;;;;5098145;28;20273;-72
2022/06/13 05:19:26;;;;;;;;;;;;;;;;;;5116501;28;19955;-72
2022/06/13 05:21:51;;;;;;;;;;;;;;;;;;5116657;28;19912;-73
2022/06/13 05:24:17;;;;;;;;;;;;;;;;;;5116419;28;19907;-72
2022/06/13 05:26:43;;;;;;;;;;;;;;;;;;5097919;28;19919;-72
2022/06/13 05:29:09;;;;;;;;;;;;;;;;;;5116579;28;19907;-72
2022/06/13 05:31:35;;;;;;;;;;;;;;;;;;5116568;28;19957;-72
2022/06/13 05:34:01;;;;;;;;;;;;;;;;;;5116166;28;19908;-72
2022/06/13 05:36:27;;;;;;;;;;;;;;;;;;5116195;28;19915;-72
2022/06/13 05:38:53;;;;;;;;;;;;;;;;;;5116146;28;19908;-72
2022/06/13 05:41:19;;;;;;;;;;;;;;;;;;5116293;28;19916;-73
2022/06/13 05:43:45;;;;;;;;;;;;;;;;;;5115949;28;20268;-73
2022/06/13 05:46:10;;;;;;;;;;;;;;;;;;5098610;28;19908;-72
2022/06/13 05:48:36;;;;;;;;;;;;;;;;;;5115946;28;20360;-72
2022/06/13 05:51:02;;;;;;;;;;;;;;;;;;5115916;28;20284;-74
2022/06/13 05:53:28;;;;;;;;;;;;;;;;;;5115841;28;19908;-73
2022/06/13 05:55:54;;;;;;;;;;;;;;;;;;5116063;28;19908;-73
2022/06/13 05:58:20;;;;;;;;;;;;;;;;;;5115754;28;19908;-72
2022/06/13 06:00:46;;;;;;;;;;;;;;;;;;5116237;28;19922;-73
2022/06/13 06:03:12;;;;;;;;;;;;;;;;;;5115573;28;20015;-73
2022/06/13 06:05:38;;;;;;;;;;;;;;;;;;5115843;28;20380;-73
2022/06/13 06:08:04;;;;;;;;;;;;;;;;;;5115831;28;19915;-72
2022/06/13 06:10:30;;;;;;;;;;;;;;;;;;5115569;28;20006;-73
2022/06/13 06:12:57;;;;;;;;;;;;;;;;;;5115505;28;19919;-72
2022/06/13 06:15:22;;;;;;;;;;;;;;;;;;5097526;28;19908;-73
2022/06/13 06:17:48;;;;;;;;;;;;;;;;;;5115269;28;20359;-72
2022/06/13 06:20:14;;;;;;;;;;;;;;;;;;5097072;28;19908;-73
2022/06/13 06:22:40;;;;;;;;;;;;;;;;;;5115214;28;20372;-73
2022/06/13 06:25:06;;;;;;;;;;;;;;;;;;5115209;28;19908;-72
2022/06/13 06:27:32;;;;;;;;;;;;;;;;;;5096475;28;20353;-72
2022/06/13 06:29:58;;;;;;;;;;;;;;;;;;5096826;28;19915;-73
2022/06/13 06:32:24;;;;;;;;;;;;;;;;;;5115347;28;19994;-73
2022/06/13 06:34:49;;;;;;;;;;;;;;;;;;5114990;28;19994;-72
2022/06/13 06:37:15;;;;;;;;;;;;;;;;;;5096665;28;19954;-73
2022/06/13 06:39:41;;;;;;;;;;;;;;;;;;5115258;28;19969;-74
2022/06/13 06:42:08;;;;;;;;;;;;;;;;;;5115106;28;19960;-74
2022/06/13 06:44:33;;;;;;;;;;;;;;;;;;5115372;28;19908;-74
2022/06/13 06:46:59;;;;;;;;;;;;;;;;;;5114104;28;19914;-73
2022/06/13 06:49:25;;;;;;;;;;;;;;;;;;5115302;28;20419;-72
2022/06/13 06:51:51;;;;;;;;;;;;;;;;;;5096404;28;19915;-73
2022/06/13 06:59:56;;;;;;;;;;;;;;;;;;5092639;28;20388;-74
2022/06/13 07:02:23;;;;;;;;;;;;;;;;;;5093509;28;19912;-72
2022/06/13 07:04:49;;;;;;;;;;;;;;;;;;5094161;28;20365;-72
2022/06/13 07:07:15;;;;;;;;;;;;;;;;;;5093633;28;19919;-73
2022/06/13 07:09:41;;;;;;;;;;;;;;;;;;5094082;28;19912;-73
2022/06/13 07:12:07;;;;;;;;;;;;;;;;;;5094072;28;20007;-73
2022/06/13 07:14:35;;;;;;;;;;;;;;;;;;5086256;28;20021;-77
2022/06/13 07:17:01;;;;;;;;;;;;;;;;;;5095136;28;20376;-79
2022/06/13 07:19:27;;;;;;;;;;;;;;;;;;5096162;28;19930;-79
2022/06/13 07:21:53;;;;;;;;;;;;;;;;;;5111841;28;20265;-78
2022/06/13 07:24:20;;;;;;;;;;;;;;;;;;5093239;28;19912;-78
2022/06/13 07:26:46;;;;;;;;;;;;;;;;;;5114357;28;20372;-77
2022/06/13 07:29:12;;;;;;;;;;;;;;;;;;5113224;28;19965;-77
2022/06/13 07:31:38;;;;;;;;;;;;;;;;;;5114457;28;19908;-76
2022/06/13 07:34:04;;;;;;;;;;;;;;;;;;5114099;28;19915;-75
2022/06/13 07:41:50;;;;;;;;;;;;;;;;;;4701732;28;19924;-82
2022/06/13 07:44:16;;;;;;;;;;;;;;;;;;5052046;28;19909;-79
2022/06/13 07:46:43;;;;;;;;;;;;;;;;;;5053538;28;19916;-76
2022/06/13 07:49:08;;;;;;;;;;;;;;;;;;5053508;28;20287;-80
2022/06/13 07:51:34;;;;;;;;;;;;;;;;;;5052208;28;19923;-78
2022/06/13 07:54:00;;;;;;;;;;;;;;;;;;5053715;28;19963;-80
2022/06/13 07:56:26;;;;;;;;;;;;;;;;;;5048822;28;19932;-80
2022/06/13 07:58:52;;;;;;;;;;;;;;;;;;5055107;28;19921;-83
2022/06/13 08:01:18;;;;;;;;;;;;;;;;;;5056488;28;20367;-79
2022/06/13 08:03:44;;;;;;;;;;;;;;;;;;5057502;28;19975;-78
2022/06/13 08:06:10;;;;;;;;;;;;;;;;;;5057592;28;19916;-78
2022/06/13 08:08:36;;;;;;;;;;;;;;;;;;5057296;28;20037;-77
2022/06/13 08:11:03;;;;;;;;;;;;;;;;;;5057366;28;19948;-77
2022/06/13 08:13:29;;;;;;;;;;;;;;;;;;5055337;28;19920;-77
2022/06/13 08:15:55;;;;;;;;;;;;;;;;;;5057433;28;19909;-76
2022/06/13 08:18:21;;;;;;;;;;;;;;;;;;5055905;28;19917;-78
2022/06/13 08:20:47;;;;;;;;;;;;;;;;;;5057652;28;20399;-78
2022/06/13 08:23:13;;;;;;;;;;;;;;;;;;5054662;28;19924;-75
2022/06/13 08:25:39;;;;;;;;;;;;;;;;;;5037583;28;19909;-79
2022/06/13 08:28:05;;;;;;;;;;;;;;;;;;5042811;28;19959;-75
2022/06/13 08:30:31;;;;;;;;;;;;;;;;;;5055539;28;19913;-79
2022/06/13 08:32:57;;;;;;;;;;;;;;;;;;5056714;28;19912;-77
2022/06/13 08:35:26;;;;;;;;;;;;;;;;;;5055948;28;21589;-77
2022/06/13 08:37:52;;;;;;;;;;;;;;;;;;5050769;28;20380;-78
2022/06/13 08:40:18;;;;;;;;;;;;;;;;;;5036389;28;20009;-78
2022/06/13 08:42:44;;;;;;;;;;;;;;;;;;5036535;28;19925;-77
2022/06/13 08:45:10;;;;;;;;;;;;;;;;;;5036664;28;20288;-78
2022/06/13 08:47:35;;;;;;;;;;;;;;;;;;5036620;28;19909;-77
2022/06/13 08:50:01;;;;;;;;;;;;;;;;;;5034807;28;20284;-77
2022/06/13 08:52:27;;;;;;;;;;;;;;;;;;5034405;28;19992;-77
2022/06/13 08:54:53;;;;;;;;;;;;;;;;;;5036376;28;19909;-79
2022/06/13 08:57:19;;;;;;;;;;;;;;;;;;5036420;28;19910;-78
2022/06/13 08:59:45;;;;;;;;;;;;;;;;;;5035090;28;19909;-77
2022/06/13 09:02:11;;;;;;;;;;;;;;;;;;5034840;28;19939;-77
2022/06/13 09:04:37;;;;;;;;;;;;;;;;;;5036289;28;20317;-76
2022/06/13 09:07:03;;;;;;;;;;;;;;;;;;5036285;28;19916;-77
2022/06/13 09:09:29;;;;;;;;;;;;;;;;;;5034219;28;20292;-76
2022/06/13 09:11:54;;;;;;;;;;;;;;;;;;5034604;28;19963;-77
2022/06/13 09:14:20;;;;;;;;;;;;;;;;;;5036691;28;19910;-76
2022/06/13 09:16:46;;;;;;;;;;;;;;;;;;5034801;28;19909;-77
2022/06/13 09:19:12;;;;;;;;;;;;;;;;;;5034131;28;19916;-77
2022/06/13 09:21:38;;;;;;;;;;;;;;;;;;5035931;28;19913;-78
2022/06/13 09:24:04;;;;;;;;;;;;;;;;;;5036500;28;20394;-79
2022/06/13 09:26:30;;;;;;;;;;;;;;;;;;5034794;28;19916;-80
2022/06/13 09:28:56;;;;;;;;;;;;;;;;;;5034465;28;19909;-80
2022/06/13 09:31:22;;;;;;;;;;;;;;;;;;5035810;28;19909;-78
2022/06/13 09:33:48;;;;;;;;;;;;;;;;;;5034629;28;19947;-76
2022/06/13 09:36:14;;;;;;;;;;;;;;;;;;5035769;28;19915;-81
2022/06/13 09:38:40;;;;;;;;;;;;;;;;;;5034387;28;20355;-82
2022/06/13 09:41:06;;;;;;;;;;;;;;;;;;5033321;28;19917;-79
2022/06/13 09:43:32;;;;;;;;;;;;;;;;;;5035598;28;19927;-80
2022/06/13 09:45:58;;;;;;;;;;;;;;;;;;5035822;28;19910;-78
2022/06/13 09:48:24;;;;;;;;;;;;;;;;;;5035517;28;19959;-77
2022/06/13 09:50:50;;;;;;;;;;;;;;;;;;5033660;28;19913;-79
2022/06/13 09:53:16;;;;;;;;;;;;;;;;;;5035470;28;20005;-77
2022/06/13 09:55:44;;;;;;;;;;;;;;;;;;5035832;28;19909;-76
2022/06/13 09:58:10;;;;;;;;;;;;;;;;;;5035423;28;19954;-75
2022/06/13 10:00:36;;;;;;;;;;;;;;;;;;5033605;28;19916;-78
2022/06/13 10:03:02;;;;;;;;;;;;;;;;;;5035729;28;20364;-77
2022/06/13 10:05:28;;;;;;;;;;;;;;;;;;5033967;28;19917;-75
2022/06/13 10:07:55;;;;;;;;;;;;;;;;;;5035147;28;20283;-79
2022/06/13 10:10:21;;;;;;;;;;;;;;;;;;5033328;28;19916;-76
2022/06/13 10:12:47;;;;;;;;;;;;;;;;;;5035114;28;20019;-76
2022/06/13 10:15:13;;;;;;;;;;;;;;;;;;5035245;28;19955;-78
2022/06/13 10:17:39;;;;;;;;;;;;;;;;;;5034971;28;19909;-78
2022/06/13 10:20:05;;;;;;;;;;;;;;;;;;5033096;28;19920;-78
2022/06/13 10:22:31;;;;;;;;;;;;;;;;;;5032396;28;19917;-77
2022/06/13 10:24:57;;;;;;;;;;;;;;;;;;5034892;28;19913;-77
2022/06/13 10:27:24;;;;;;;;;;;;;;;;;;5034842;28;19948;-76
2022/06/13 10:29:50;;;;;;;;;;;;;;;;;;5034824;28;19956;-76
2022/06/13 10:32:16;;;;;;;;;;;;;;;;;;5032693;28;19913;-75
2022/06/13 10:34:42;;;;;;;;;;;;;;;;;;5034590;28;19956;-77
2022/06/13 10:37:08;;;;;;;;;;;;;;;;;;5033328;28;19909;-76
2022/06/13 10:39:34;;;;;;;;;;;;;;;;;;5034786;28;19909;-76
2022/06/13 10:41:59;;;;;;;;;;;;;;;;;;5034246;28;20399;-76
2022/06/13 10:44:25;;;;;;;;;;;;;;;;;;5034452;28;19909;-77
2022/06/13 10:46:51;;;;;;;;;;;;;;;;;;5034946;28;20317;-76
2022/06/13 10:49:17;;;;;;;;;;;;;;;;;;5034344;28;19913;-75
2022/06/13 10:51:43;;;;;;;;;;;;;;;;;;5033031;28;19916;-75
2022/06/13 10:54:10;;;;;;;;;;;;;;;;;;5034264;28;20009;-75
2022/06/13 10:56:37;;;;;;;;;;;;;;;;;;5034878;28;19915;-76
2022/06/13 10:59:02;;;;;;;;;;;;;;;;;;5034259;28;19909;-77
2022/06/13 11:01:29;;;;;;;;;;;;;;;;;;5034073;28;19909;-75
2022/06/13 11:03:54;;;;;;;;;;;;;;;;;;5034401;28;19932;-76
2022/06/13 11:06:20;;;;;;;;;;;;;;;;;;5034109;28;20365;-77
2022/06/13 11:08:46;;;;;;;;;;;;;;;;;;5034379;28;19910;-76
2022/06/13 11:11:16;;;;;;;;;;;;;;;;;;5034321;28;20385;-76
2022/06/13 11:13:41;;;;;;;;;;;;;;;;;;5032687;28;19996;-75
2022/06/13 11:24:21;;;;;;;;;;;;;;;;;;5033907;28;19916;-77
2022/06/13 11:29:32;;;;;;;;;;;;;;;;;;5033570;28;20004;-76
2022/06/13 11:31:58;;;;;;;;;;;;;;;;;;5033416;28;19920;-75
2022/06/13 11:34:24;;;;;;;;;;;;;;;;;;5033777;28;19959;-75
2022/06/13 11:36:50;;;;;;;;;;;;;;;;;;5032453;28;19909;-76
2022/06/13 11:39:15;;;;;;;;;;;;;;;;;;5033627;28;20365;-76
2022/06/13 11:41:41;;;;;;;;;;;;;;;;;;5033388;28;19928;-77
2022/06/13 11:44:07;;;;;;;;;;;;;;;;;;5034171;28;20308;-76
2022/06/13 11:46:33;;;;;;;;;;;;;;;;;;5033610;28;19956;-75
2022/06/13 11:48:59;;;;;;;;;;;;;;;;;;5034137;28;19912;-77
2022/06/13 11:51:25;;;;;;;;;;;;;;;;;;5033617;28;19909;-76
2022/06/13 11:53:52;;;;;;;;;;;;;;;;;;5033839;28;19909;-76
2022/06/13 11:56:18;;;;;;;;;;;;;;;;;;5032114;28;19949;-77
2022/06/13 11:58:44;;;;;;;;;;;;;;;;;;5033777;28;19951;-76
2022/06/13 12:01:10;;;;;;;;;;;;;;;;;;5033480;28;19971;-76
2022/06/13 12:03:36;;;;;;;;;;;;;;;;;;5033423;28;19920;-76
2022/06/13 12:06:02;;;;;;;;;;;;;;;;;;5033489;28;19910;-75
2022/06/13 12:08:28;;;;;;;;;;;;;;;;;;5033438;28;19932;-77
2022/06/13 12:10:54;;;;;;;;;;;;;;;;;;5032159;28;19916;-77
2022/06/13 12:13:22;;;;;;;;;;;;;;;;;;5032071;28;19976;-77
2022/06/13 12:15:48;;;;;;;;;;;;;;;;;;5032414;28;19932;-76
2022/06/13 12:18:14;;;;;;;;;;;;;;;;;;5031674;28;20373;-77
2022/06/13 12:20:40;;;;;;;;;;;;;;;;;;5029196;28;19916;-78
2022/06/13 12:23:06;;;;;;;;;;;;;;;;;;5013491;28;19967;-77
2022/06/13 12:25:32;;;;;;;;;;;;;;;;;;5025153;28;19952;-78
2022/06/13 12:27:58;;;;;;;;;;;;;;;;;;5032693;28;19913;-75
2022/06/13 12:30:24;;;;;;;;;;;;;;;;;;5032638;28;19956;-75
2022/06/13 12:32:50;;;;;;;;;;;;;;;;;;5033198;28;19936;-82
2022/06/13 12:35:16;;;;;;;;;;;;;;;;;;5031161;28;19909;-80
2022/06/13 12:37:41;;;;;;;;;;;;;;;;;;5028922;28;19925;-81
2022/06/13 12:40:07;;;;;;;;;;;;;;;;;;5013685;28;19949;-80
2022/06/13 12:42:36;;;;;;;;;;;;;;;;;;5028250;28;20392;-82
2022/06/13 12:45:03;;;;;;;;;;;;;;;;;;5030424;28;20376;-81
2022/06/13 12:47:29;;;;;;;;;;;;;;;;;;5024503;28;19913;-75
2022/06/13 12:49:55;;;;;;;;;;;;;;;;;;5035664;28;19920;-77
2022/06/13 12:52:20;;;;;;;;;;;;;;;;;;5035689;28;19913;-77
2022/06/13 12:54:46;;;;;;;;;;;;;;;;;;5035694;28;19992;-77
2022/06/13 12:57:12;;;;;;;;;;;;;;;;;;5037033;28;19910;-76
2022/06/13 12:59:38;;;;;;;;;;;;;;;;;;5036443;28;19916;-78
2022/06/13 13:02:04;;;;;;;;;;;;;;;;;;5035137;28;20312;-78
2022/06/13 13:04:30;;;;;;;;;;;;;;;;;;5035390;28;19917;-78
2022/06/13 13:06:56;;;;;;;;;;;;;;;;;;5035169;28;20349;-79
2022/06/13 13:09:22;;;;;;;;;;;;;;;;;;5036227;28;19910;-79
2022/06/13 13:11:48;;;;;;;;;;;;;;;;;;5036535;28;19936;-76
2022/06/13 13:14:14;;;;;;;;;;;;;;;;;;5035083;28;19989;-77
2022/06/13 13:16:40;;;;;;;;;;;;;;;;;;5036212;28;19909;-79
2022/06/13 13:19:05;;;;;;;;;;;;;;;;;;5035047;28;19913;-78
2022/06/13 13:21:31;;;;;;;;;;;;;;;;;;5036354;28;19974;-79
2022/06/13 13:23:57;;;;;;;;;;;;;;;;;;5036293;28;20365;-76
2022/06/13 13:26:23;;;;;;;;;;;;;;;;;;5036318;28;19909;-78
2022/06/13 13:28:49;;;;;;;;;;;;;;;;;;5034488;28;20404;-76
2022/06/13 13:31:15;;;;;;;;;;;;;;;;;;5035910;28;19916;-76
2022/06/13 13:33:41;;;;;;;;;;;;;;;;;;5036081;28;19917;-77
2022/06/13 13:36:07;;;;;;;;;;;;;;;;;;5036014;28;19945;-78
2022/06/13 13:38:32;;;;;;;;;;;;;;;;;;5033580;28;19913;-75
2022/06/13 13:40:58;;;;;;;;;;;;;;;;;;5033668;28;20285;-77
2022/06/13 13:43:24;;;;;;;;;;;;;;;;;;5035609;28;19925;-75
2022/06/13 13:45:50;;;;;;;;;;;;;;;;;;5035880;28;20327;-76
2022/06/13 13:48:16;;;;;;;;;;;;;;;;;;5035571;28;19948;-80
2022/06/13 13:50:42;;;;;;;;;;;;;;;;;;5033775;28;19909;-78
2022/06/13 13:53:08;;;;;;;;;;;;;;;;;;5035486;28;19917;-77
2022/06/13 13:55:34;;;;;;;;;;;;;;;;;;5033920;28;20266;-80
2022/06/13 13:58:00;;;;;;;;;;;;;;;;;;5034335;28;19916;-79
2022/06/13 14:00:26;;;;;;;;;;;;;;;;;;5033081;28;19944;-79
2022/06/13 14:02:52;;;;;;;;;;;;;;;;;;5033863;28;19964;-79
2022/06/13 14:05:19;;;;;;;;;;;;;;;;;;5035455;28;20280;-75
2022/06/13 14:07:45;;;;;;;;;;;;;;;;;;5035245;28;20395;-79
2022/06/13 14:10:11;;;;;;;;;;;;;;;;;;5033880;28;19913;-76
2022/06/13 14:12:37;;;;;;;;;;;;;;;;;;5033857;28;19963;-77
2022/06/13 14:15:03;;;;;;;;;;;;;;;;;;5032946;28;19967;-75
2022/06/13 14:17:28;;;;;;;;;;;;;;;;;;5032356;28;19913;-77
2022/06/13 14:19:54;;;;;;;;;;;;;;;;;;5033384;28;19916;-77
2022/06/13 14:22:22;;;;;;;;;;;;;;;;;;5034734;28;20371;-75
2022/06/13 14:24:48;;;;;;;;;;;;;;;;;;5035188;28;19916;-80
2022/06/13 14:27:14;;;;;;;;;;;;;;;;;;5039643;28;19980;-78
2022/06/13 14:29:42;;;;;;;;;;;;;;;;;;5044246;28;19921;-75
2022/06/13 14:32:08;;;;;;;;;;;;;;;;;;5037145;28;19913;-78
2022/06/13 14:37:18;;;;;;;;;;;;;;;;;;5033654;28;20044;-78
2022/06/13 14:39:45;;;;;;;;;;;;;;;;;;5032501;28;20012;-79
2022/06/13 14:42:11;;;;;;;;;;;;;;;;;;5032743;28;20443;-78
2022/06/13 14:44:36;;;;;;;;;;;;;;;;;;5029186;28;19995;-77
2022/06/13 14:47:02;;;;;;;;;;;;;;;;;;5018666;28;20380;-83
2022/06/13 14:49:28;;;;;;;;;;;;;;;;;;5031739;28;19920;-77
2022/06/13 14:51:54;;;;;;;;;;;;;;;;;;5033703;28;19921;-76
2022/06/13 14:54:20;;;;;;;;;;;;;;;;;;5033108;28;19910;-75
2022/06/13 14:56:46;;;;;;;;;;;;;;;;;;5034338;28;19913;-76
2022/06/13 14:59:12;;;;;;;;;;;;;;;;;;5021791;28;19924;-78
2022/06/13 15:01:38;;;;;;;;;;;;;;;;;;5034388;28;19963;-78
2022/06/13 15:04:04;;;;;;;;;;;;;;;;;;5034107;28;19916;-77
2022/06/13 15:06:30;;;;;;;;;;;;;;;;;;5017248;28;19960;-76
2022/06/13 15:08:56;;;;;;;;;;;;;;;;;;5023800;28;19992;-80
2022/06/13 15:11:22;;;;;;;;;;;;;;;;;;5029104;28;19944;-78
2022/06/13 15:13:48;;;;;;;;;;;;;;;;;;5033256;28;19913;-79
2022/06/13 15:16:14;;;;;;;;;;;;;;;;;;5034267;28;19909;-75
2022/06/13 15:18:39;;;;;;;;;;;;;;;;;;5033133;28;20380;-76
2022/06/13 15:21:05;;;;;;;;;;;;;;;;;;5030116;28;19945;-76
2022/06/13 15:23:31;;;;;;;;;;;;;;;;;;5034152;28;19913;-78
2022/06/13 15:25:57;;;;;;;;;;;;;;;;;;5031428;28;19964;-77
2022/06/13 15:28:23;;;;;;;;;;;;;;;;;;5033890;28;19956;-77
2022/06/13 15:30:49;;;;;;;;;;;;;;;;;;5032531;28;19916;-76
2022/06/13 15:33:15;;;;;;;;;;;;;;;;;;5030865;28;19920;-75
2022/06/13 15:35:41;;;;;;;;;;;;;;;;;;5033674;28;19913;-74
2022/06/13 15:38:07;;;;;;;;;;;;;;;;;;5033812;28;19909;-75
2022/06/13 15:40:33;;;;;;;;;;;;;;;;;;5033432;28;20365;-75
2022/06/13 15:42:58;;;;;;;;;;;;;;;;;;5033226;28;20437;-75
2022/06/13 15:45:24;;;;;;;;;;;;;;;;;;5033883;28;19963;-74
2022/06/13 15:47:50;;;;;;;;;;;;;;;;;;5033589;28;19932;-75
2022/06/13 15:50:16;;;;;;;;;;;;;;;;;;5034114;28;19913;-75
2022/06/13 15:52:42;;;;;;;;;;;;;;;;;;5033525;28;19915;-75
2022/06/13 15:55:08;;;;;;;;;;;;;;;;;;5033518;28;19968;-76
2022/06/13 15:57:34;;;;;;;;;;;;;;;;;;5033772;28;19909;-74
2022/06/13 16:00:00;;;;;;;;;;;;;;;;;;5032233;28;20261;-73
2022/06/13 16:02:26;;;;;;;;;;;;;;;;;;5033424;28;19920;-74
2022/06/13 16:04:52;;;;;;;;;;;;;;;;;;5033468;28;20432;-76
2022/06/13 16:07:18;;;;;;;;;;;;;;;;;;5033434;28;19913;-74
2022/06/13 16:09:43;;;;;;;;;;;;;;;;;;5033993;28;19963;-74
2022/06/13 16:12:10;;;;;;;;;;;;;;;;;;5032006;28;19909;-74
2022/06/13 16:14:36;;;;;;;;;;;;;;;;;;5033882;28;19909;-74
2022/06/13 16:17:01;;;;;;;;;;;;;;;;;;5033307;28;19917;-74
2022/06/13 16:19:27;;;;;;;;;;;;;;;;;;5036003;28;19920;-74
2022/06/13 16:21:53;;;;;;;;;;;;;;;;;;5037630;28;19917;-74
2022/06/13 16:24:19;;;;;;;;;;;;;;;;;;5037066;28;19913;-75
2022/06/13 16:26:45;;;;;;;;;;;;;;;;;;5035588;28;20444;-74
2022/06/13 16:29:11;;;;;;;;;;;;;;;;;;5035747;28;19909;-74
2022/06/13 16:31:37;;;;;;;;;;;;;;;;;;5036989;28;19909;-74
2022/06/13 16:34:03;;;;;;;;;;;;;;;;;;5036912;28;19955;-75
2022/06/13 16:36:29;;;;;;;;;;;;;;;;;;5036913;28;20288;-75
2022/06/13 16:38:55;;;;;;;;;;;;;;;;;;5036928;28;19916;-76
2022/06/13 16:41:20;;;;;;;;;;;;;;;;;;5036717;28;19964;-74
2022/06/13 16:43:46;;;;;;;;;;;;;;;;;;5036691;28;20365;-75
2022/06/13 16:46:12;;;;;;;;;;;;;;;;;;5036689;28;19910;-74
2022/06/13 16:48:38;;;;;;;;;;;;;;;;;;5036627;28;20412;-76
2022/06/13 16:51:04;;;;;;;;;;;;;;;;;;5036618;28;19916;-74
2022/06/13 16:53:30;;;;;;;;;;;;;;;;;;5037077;28;20412;-73
2022/06/13 16:55:56;;;;;;;;;;;;;;;;;;5035229;28;19956;-75
2022/06/13 16:58:22;;;;;;;;;;;;;;;;;;5036513;28;19915;-74
2022/06/13 17:00:48;;;;;;;;;;;;;;;;;;5036465;28;19963;-73